Time;durP1;ratioP1;P1;durP2;ratioP2;P2;SDS_P1;SDS_P2;PMS_P1;PMS_P2;Temp;Humidity;BMP_temperature;BMP_pressure;BME280_temperature;BME280_humidity;BME280_pressure;Samples;Min_cycle;Max_cycle;Signal;HPM_P1;HPM_P2
2022/08/09 00:00:00;;;;;;;2.42;0.82;;;25.50;37.60;;;;;;5052615;28;20107;-39
2022/08/09 00:02:25;;;;;;;0.82;0.80;;;25.50;37.70;;;;;;5051446;28;20025;-46
2022/08/09 00:04:51;;;;;;;1.42;0.90;;;25.50;37.80;;;;;;5053006;28;20047;-39
2022/08/09 00:07:16;;;;;;;1.95;0.98;;;25.50;37.80;;;;;;5050900;28;20025;-39
2022/08/09 00:09:42;;;;;;;2.47;1.00;;;25.50;37.80;;;;;;5041249;28;20021;-39
2022/08/09 00:12:09;;;;;;;2.90;0.80;;;25.50;37.80;;;;;;5050609;28;20448;-39
2022/08/09 00:14:35;;;;;;;4.15;0.70;;;25.50;38.00;;;;;;5049644;28;20040;-39
2022/08/09 00:17:00;;;;;;;3.03;0.82;;;25.40;38.00;;;;;;5051374;28;20083;-39
2022/08/09 00:19:26;;;;;;;2.55;1.00;;;25.50;38.00;;;;;;5050473;28;20029;-44
2022/08/09 00:21:52;;;;;;;3.25;1.27;;;25.50;38.10;;;;;;5051987;28;20040;-40
2022/08/09 00:24:17;;;;;;;3.78;0.80;;;25.40;38.00;;;;;;5055963;28;20032;-41
2022/08/09 00:26:43;;;;;;;1.00;0.70;;;25.40;38.20;;;;;;5054482;28;20645;-40
2022/08/09 00:29:09;;;;;;;1.40;0.70;;;25.40;38.20;;;;;;5064533;28;20060;-40
2022/08/09 00:31:34;;;;;;;0.85;0.70;;;25.40;38.20;;;;;;5058572;28;20085;-40
2022/08/09 00:34:00;;;;;;;1.88;0.70;;;25.40;38.20;;;;;;5055675;28;20458;-40
2022/08/09 00:36:26;;;;;;;1.48;0.98;;;25.40;38.30;;;;;;5054549;28;20040;-44
2022/08/09 00:38:52;;;;;;;1.02;0.88;;;25.40;38.30;;;;;;5064134;28;20378;-40
2022/08/09 00:41:21;;;;;;;1.42;1.10;;;25.40;38.70;;;;;;5055362;28;20025;-40
2022/08/09 00:43:47;;;;;;;2.45;1.08;;;25.40;38.50;;;;;;5054482;28;20112;-40
2022/08/09 00:46:13;;;;;;;2.83;1.05;;;25.40;38.50;;;;;;5055246;28;20367;-40
2022/08/09 00:48:38;;;;;;;1.55;0.98;;;25.40;38.60;;;;;;5057613;28;20100;-40
2022/08/09 00:51:07;;;;;;;2.90;1.05;;;25.30;38.50;;;;;;5055418;28;20047;-40
2022/08/09 00:53:37;;;;;;;0.93;0.80;;;25.30;38.60;;;;;;5054384;28;20347;-40
2022/08/09 00:56:06;;;;;;;1.23;0.90;;;25.30;38.60;;;;;;5055034;28;20029;-40
2022/08/09 00:58:34;;;;;;;2.80;1.23;;;25.30;38.70;;;;;;5053946;28;20028;-40
2022/08/09 01:01:05;;;;;;;3.22;1.08;;;25.30;38.70;;;;;;5054599;28;20083;-42
2022/08/09 01:03:58;;;;;;;1.00;0.80;;;25.30;38.70;;;;;;5058187;28;20082;-40
2022/08/09 01:06:43;;;;;;;1.30;1.10;;;25.30;38.80;;;;;;5010586;28;20048;-46
2022/08/09 01:09:36;;;;;;;1.27;0.90;;;25.30;38.90;;;;;;5054713;28;20028;-40
2022/08/09 01:12:21;;;;;;;1.95;1.15;;;25.30;38.90;;;;;;5054483;28;20095;-40
2022/08/09 01:15:22;;;;;;;2.75;1.10;;;25.30;39.00;;;;;;5018737;28;20052;-40
2022/08/09 01:17:54;;;;;;;2.00;1.10;;;25.30;39.00;;;;;;5044278;28;20140;-40
2022/08/09 01:20:27;;;;;;;2.58;0.95;;;25.20;38.90;;;;;;5037316;28;20025;-40
2022/08/09 01:23:11;;;;;;;2.30;1.08;;;25.20;39.00;;;;;;5034909;28;20021;-40
2022/08/09 01:25:46;;;;;;;2.30;1.17;;;25.20;39.00;;;;;;5043647;28;20033;-40
2022/08/09 01:28:14;;;;;;;1.88;1.00;;;25.20;39.10;;;;;;5038424;28;20057;-40
2022/08/09 01:30:41;;;;;;;1.90;0.93;;;25.20;39.10;;;;;;5050143;28;20080;-40
2022/08/09 01:33:08;;;;;;;1.65;1.02;;;25.20;39.20;;;;;;5035507;28;20475;-42
2022/08/09 01:35:43;;;;;;;2.03;1.30;;;25.20;39.30;;;;;;5024491;28;20033;-40
2022/08/09 01:38:16;;;;;;;1.55;0.90;;;25.20;39.30;;;;;;5049981;28;20025;-40
2022/08/09 01:40:52;;;;;;;4.05;1.30;;;25.20;39.40;;;;;;5031571;28;20437;-40
2022/08/09 01:43:19;;;;;;;3.38;1.23;;;25.20;39.50;;;;;;5042677;28;20025;-40
2022/08/09 01:45:47;;;;;;;2.33;1.23;;;25.20;39.70;;;;;;5040832;28;20125;-40
2022/08/09 01:48:15;;;;;;;2.13;1.10;;;25.20;39.60;;;;;;5036321;28;20038;-40
2022/08/09 01:50:46;;;;;;;2.70;1.30;;;25.10;39.60;;;;;;5025454;28;20021;-40
2022/08/09 01:53:12;;;;;;;1.60;1.00;;;25.10;39.70;;;;;;5041773;28;20025;-40
2022/08/09 01:55:39;;;;;;;2.47;1.00;;;25.10;39.60;;;;;;5041858;28;20056;-41
2022/08/09 01:58:06;;;;;;;1.40;1.20;;;25.10;39.70;;;;;;5042760;28;20031;-40
2022/08/09 02:00:33;;;;;;;2.97;1.50;;;25.10;39.70;;;;;;5048624;28;20025;-40
2022/08/09 02:03:00;;;;;;;2.15;1.10;;;25.10;39.90;;;;;;5036928;28;20033;-40
2022/08/09 02:05:27;;;;;;;2.80;1.17;;;25.10;39.80;;;;;;5033015;28;20026;-46
2022/08/09 02:08:01;;;;;;;3.70;0.95;;;25.10;39.80;;;;;;5034622;28;20037;-40
2022/08/09 02:10:31;;;;;;;1.25;1.00;;;25.10;39.80;;;;;;5037540;28;20068;-47
2022/08/09 02:13:04;;;;;;;1.35;1.02;;;25.00;39.70;;;;;;5061503;28;20048;-40
2022/08/09 02:15:32;;;;;;;1.13;0.85;;;25.00;39.80;;;;;;5055549;28;20083;-41
2022/08/09 02:17:59;;;;;;;1.48;0.80;;;25.00;39.80;;;;;;5064724;28;20033;-40
2022/08/09 02:20:28;;;;;;;1.80;1.00;;;25.00;39.80;;;;;;5054847;28;20029;-46
2022/08/09 02:23:08;;;;;;;1.38;1.00;;;25.00;39.70;;;;;;5059418;28;20029;-40
2022/08/09 02:25:38;;;;;;;1.65;1.00;;;25.00;39.70;;;;;;5050736;28;20122;-40
2022/08/09 02:28:13;;;;;;;2.13;0.90;;;25.00;39.80;;;;;;5051760;28;20028;-40
2022/08/09 02:30:46;;;;;;;1.60;1.15;;;25.00;39.80;;;;;;5054030;28;20029;-40
2022/08/09 02:33:18;;;;;;;1.92;0.95;;;25.00;39.80;;;;;;5052845;28;20029;-40
2022/08/09 02:35:46;;;;;;;1.75;1.30;;;25.00;39.90;;;;;;5047524;28;20024;-40
2022/08/09 02:38:17;;;;;;;2.42;1.05;;;25.00;40.00;;;;;;5069471;28;20370;-40
2022/08/09 02:40:43;;;;;;;2.28;1.13;;;25.00;40.10;;;;;;5053692;28;20021;-40
2022/08/09 02:43:10;;;;;;;1.50;0.88;;;25.00;40.10;;;;;;5052949;28;20021;-40
2022/08/09 02:45:41;;;;;;;1.45;0.82;;;25.00;40.10;;;;;;5044438;28;20394;-40
2022/08/09 02:48:12;;;;;;;1.15;0.90;;;25.00;40.10;;;;;;5052561;28;20082;-40
2022/08/09 02:50:53;;;;;;;2.27;0.90;;;25.00;40.20;;;;;;5052270;28;20029;-40
2022/08/09 02:53:37;;;;;;;1.80;1.13;;;24.90;40.10;;;;;;5052736;28;20028;-40
2022/08/09 02:56:04;;;;;;;1.73;1.02;;;24.90;40.10;;;;;;5057564;28;20046;-40
2022/08/09 02:58:32;;;;;;;2.53;1.27;;;25.00;40.20;;;;;;5052160;28;20029;-41
2022/08/09 03:01:00;;;;;;;3.58;1.73;;;24.90;40.10;;;;;;5052611;28;20428;-40
2022/08/09 03:03:27;;;;;;;1.40;1.00;;;25.00;40.30;;;;;;5051992;28;20056;-46
2022/08/09 03:05:55;;;;;;;3.17;1.08;;;24.90;40.20;;;;;;5063110;28;20481;-40
2022/08/09 03:08:22;;;;;;;1.20;0.82;;;24.90;40.30;;;;;;5049442;28;20025;-40
2022/08/09 03:10:49;;;;;;;1.90;1.10;;;24.90;40.30;;;;;;5050591;28;20082;-40
2022/08/09 03:13:16;;;;;;;5.15;1.20;;;24.90;40.40;;;;;;5060830;28;20545;-40
2022/08/09 03:15:42;;;;;;;2.17;1.23;;;24.90;40.40;;;;;;5051069;28;20492;-40
2022/08/09 03:18:09;;;;;;;1.90;1.20;;;24.90;40.50;;;;;;5049997;28;20029;-40
2022/08/09 03:20:37;;;;;;;1.50;1.40;;;24.80;40.40;;;;;;5026018;28;20108;-40
2022/08/09 03:23:04;;;;;;;3.10;1.40;;;24.90;40.50;;;;;;5041867;28;20103;-40
2022/08/09 03:25:31;;;;;;;1.42;1.00;;;24.90;40.40;;;;;;5051190;28;20028;-40
2022/08/09 03:27:58;;;;;;;1.63;1.15;;;24.90;40.50;;;;;;5052208;28;20036;-40
2022/08/09 03:30:24;;;;;;;2.33;1.20;;;24.90;40.50;;;;;;5053826;28;20029;-40
2022/08/09 03:32:52;;;;;;;2.55;1.30;;;24.80;41.20;;;;;;5051422;28;20179;-40
2022/08/09 03:35:18;;;;;;;2.90;1.20;;;24.80;40.50;;;;;;5047000;28;20032;-40
2022/08/09 03:37:44;;;;;;;2.42;1.15;;;24.80;40.50;;;;;;5049006;28;20458;-40
2022/08/09 03:40:10;;;;;;;3.75;1.20;;;24.80;40.40;;;;;;5045732;28;20029;-40
2022/08/09 03:42:36;;;;;;;2.38;1.17;;;24.80;40.50;;;;;;5046063;28;20100;-40
2022/08/09 03:45:02;;;;;;;9.25;1.40;;;24.80;40.60;;;;;;5052572;28;20175;-41
2022/08/09 03:47:28;;;;;;;3.38;1.40;;;24.80;40.60;;;;;;5050314;28;20032;-46
2022/08/09 03:49:55;;;;;;;3.95;1.23;;;24.80;40.70;;;;;;5040225;28;20374;-40
2022/08/09 03:52:22;;;;;;;5.25;1.38;;;24.80;40.60;;;;;;5047903;28;20485;-40
2022/08/09 03:54:49;;;;;;;2.97;1.67;;;24.80;40.70;;;;;;5034697;28;20072;-40
2022/08/09 03:57:16;;;;;;;1.95;0.98;;;24.80;40.70;;;;;;5051220;28;20036;-40
2022/08/09 03:59:42;;;;;;;2.08;1.52;;;24.80;40.70;;;;;;5060267;28;20029;-40
2022/08/09 04:02:08;;;;;;;2.15;1.08;;;24.80;40.60;;;;;;5052652;28;20094;-40
2022/08/09 04:04:34;;;;;;;2.53;1.17;;;24.80;40.70;;;;;;5057953;28;20021;-40
2022/08/09 04:07:00;;;;;;;2.22;1.40;;;24.80;40.70;;;;;;5046737;28;20076;-40
2022/08/09 04:09:27;;;;;;;2.75;0.98;;;24.80;40.80;;;;;;5051654;28;20028;-44
2022/08/09 04:12:03;;;;;;;2.38;1.17;;;24.80;41.00;;;;;;5045575;28;20072;-40
2022/08/09 04:14:29;;;;;;;1.98;1.15;;;24.70;40.90;;;;;;5046534;28;20082;-47
2022/08/09 04:16:54;;;;;;;2.78;1.20;;;24.70;40.90;;;;;;5051267;28;20029;-40
2022/08/09 04:19:20;;;;;;;4.68;1.33;;;24.70;41.00;;;;;;5050701;28;20032;-40
2022/08/09 04:21:46;;;;;;;1.90;1.00;;;24.70;41.10;;;;;;5053738;28;20771;-40
2022/08/09 04:24:11;;;;;;;2.33;1.10;;;24.70;41.20;;;;;;5048911;28;20025;-40
2022/08/09 04:26:37;;;;;;;2.30;1.20;;;24.70;41.10;;;;;;5048336;28;20480;-40
2022/08/09 04:29:02;;;;;;;1.38;1.02;;;24.70;41.10;;;;;;5049979;28;20025;-41
2022/08/09 04:31:28;;;;;;;1.88;1.10;;;24.70;41.20;;;;;;5051250;28;20025;-44
2022/08/09 04:33:54;;;;;;;1.60;1.02;;;24.60;41.10;;;;;;5050504;28;20509;-40
2022/08/09 04:36:26;;;;;;;2.85;1.20;;;24.60;41.20;;;;;;5047719;28;20028;-40
2022/08/09 04:38:53;;;;;;;3.97;1.38;;;24.60;41.20;;;;;;5050195;28;20033;-40
2022/08/09 04:41:20;;;;;;;2.35;1.40;;;24.70;41.30;;;;;;5049985;28;20435;-39
2022/08/09 04:43:45;;;;;;;2.85;1.52;;;24.70;41.30;;;;;;5051964;28;20067;-38
2022/08/09 04:46:11;;;;;;;1.50;1.08;;;24.70;41.30;;;;;;5051700;28;20068;-39
2022/08/09 04:48:36;;;;;;;1.45;1.30;;;24.70;41.30;;;;;;5050313;28;20096;-40
2022/08/09 04:51:02;;;;;;;1.65;0.95;;;24.70;41.40;;;;;;5051504;28;20071;-42
2022/08/09 04:53:28;;;;;;;1.65;1.10;;;24.70;41.30;;;;;;5046221;28;20025;-43
2022/08/09 04:55:53;;;;;;;3.67;1.20;;;24.70;41.30;;;;;;5050366;28;20116;-39
2022/08/09 04:58:19;;;;;;;3.20;1.15;;;24.70;41.30;;;;;;5049422;28;20025;-38
2022/08/09 05:00:45;;;;;;;1.52;1.30;;;24.70;41.40;;;;;;5045017;28;20057;-39
2022/08/09 05:03:10;;;;;;;5.82;1.75;;;24.70;41.30;;;;;;5046040;28;20029;-39
2022/08/09 05:05:37;;;;;;;2.20;0.90;;;24.70;41.40;;;;;;5053294;28;20100;-40
2022/08/09 05:08:02;;;;;;;3.03;1.40;;;24.70;41.50;;;;;;5047464;28;20029;-40
2022/08/09 05:10:28;;;;;;;3.00;1.10;;;24.70;41.60;;;;;;5054626;28;20366;-46
2022/08/09 05:12:54;;;;;;;2.53;1.08;;;24.70;41.80;;;;;;5058612;28;20057;-40
2022/08/09 05:15:19;;;;;;;3.30;1.15;;;24.70;42.40;;;;;;5062431;28;20033;-40
2022/08/09 05:17:45;;;;;;;2.30;1.23;;;24.70;41.60;;;;;;5053078;28;20028;-40
2022/08/09 05:20:11;;;;;;;2.05;1.35;;;24.60;41.60;;;;;;5054405;28;20033;-40
2022/08/09 05:22:36;;;;;;;4.03;1.15;;;24.70;41.70;;;;;;5053543;28;20439;-42
2022/08/09 05:25:05;;;;;;;4.03;1.35;;;24.70;41.70;;;;;;5054537;28;20029;-42
2022/08/09 05:27:31;;;;;;;1.67;1.15;;;24.60;41.80;;;;;;5052870;28;20029;-46
2022/08/09 05:29:57;;;;;;;2.03;1.27;;;24.70;41.90;;;;;;5057192;28;20036;-40
2022/08/09 05:32:22;;;;;;;3.28;1.40;;;24.60;41.90;;;;;;5050646;28;20029;-39
2022/08/09 05:34:48;;;;;;;1.58;1.30;;;24.70;42.00;;;;;;5064806;28;20028;-40
2022/08/09 05:37:14;;;;;;;2.63;1.48;;;24.70;42.20;;;;;;5054020;28;20033;-40
2022/08/09 05:39:40;;;;;;;2.08;1.40;;;24.70;42.30;;;;;;5053488;28;20036;-39
2022/08/09 05:42:06;;;;;;;2.35;1.27;;;24.70;42.40;;;;;;5052514;28;20040;-40
2022/08/09 05:44:32;;;;;;;2.28;1.35;;;24.70;42.40;;;;;;5065713;28;20025;-46
2022/08/09 05:46:58;;;;;;;3.17;1.40;;;24.70;42.50;;;;;;5053172;28;20041;-39
2022/08/09 05:49:23;;;;;;;6.32;1.45;;;24.60;42.60;;;;;;5054213;28;20040;-41
2022/08/09 05:51:49;;;;;;;3.08;1.40;;;24.70;42.80;;;;;;5053083;28;20025;-39
2022/08/09 05:54:14;;;;;;;3.38;1.73;;;24.70;43.00;;;;;;5048882;28;20025;-39
2022/08/09 05:56:40;;;;;;;2.72;1.33;;;24.60;43.00;;;;;;5052503;28;20082;-40
2022/08/09 05:59:06;;;;;;;5.07;2.15;;;24.70;43.10;;;;;;5055773;28;20040;-40
2022/08/09 06:01:32;;;;;;;3.35;1.80;;;24.70;43.20;;;;;;5048450;28;20024;-45
2022/08/09 06:03:58;;;;;;;3.25;1.50;;;24.70;43.20;;;;;;5057865;28;20029;-39
2022/08/09 06:06:24;;;;;;;3.30;1.60;;;24.70;43.30;;;;;;5053652;28;20025;-39
2022/08/09 06:08:50;;;;;;;11.65;1.77;;;24.70;43.40;;;;;;5048244;28;20795;-39
2022/08/09 06:11:16;;;;;;;5.68;1.95;;;24.80;43.30;;;;;;5052495;28;20044;-39
2022/08/09 06:13:42;;;;;;;4.22;1.70;;;24.90;43.20;;;;;;5053697;28;20535;-39
2022/08/09 06:16:09;;;;;;;3.47;1.73;;;25.00;43.20;;;;;;5052828;28;20094;-39
2022/08/09 06:18:36;;;;;;;2.85;1.60;;;25.00;43.20;;;;;;5052814;28;20031;-40
2022/08/09 06:21:02;;;;;;;2.88;1.50;;;25.00;43.10;;;;;;5052519;28;20474;-41
2022/08/09 06:23:30;;;;;;;3.97;1.50;;;25.10;43.10;;;;;;5066450;28;20028;-42
2022/08/09 06:25:55;;;;;;;4.60;1.63;;;25.10;43.20;;;;;;5056141;28;20041;-40
2022/08/09 06:28:21;;;;;;;3.17;1.52;;;25.20;43.30;;;;;;5057243;28;20036;-40
2022/08/09 06:30:47;;;;;;;5.97;1.75;;;25.20;43.20;;;;;;5052675;28;20028;-40
2022/08/09 06:33:13;;;;;;;13.32;1.95;;;25.20;43.20;;;;;;5052645;28;20390;-38
2022/08/09 06:35:38;;;;;;;3.78;1.92;;;25.20;43.80;;;;;;5052772;28;20175;-38
2022/08/09 06:38:05;;;;;;;3.70;1.65;;;25.20;43.40;;;;;;5048229;28;20029;-38
2022/08/09 06:40:31;;;;;;;8.80;2.53;;;25.30;43.60;;;;;;5053021;28;20021;-44
2022/08/09 06:42:56;;;;;;;3.00;1.55;;;25.30;43.60;;;;;;5060690;28;20047;-38
2022/08/09 06:45:22;;;;;;;5.55;1.48;;;25.30;43.60;;;;;;5052802;28;20466;-38
2022/08/09 06:47:48;;;;;;;2.97;1.80;;;25.30;44.50;;;;;;5051590;28;20529;-38
2022/08/09 06:50:15;;;;;;;4.93;2.20;;;25.30;43.70;;;;;;5052959;28;20025;-38
2022/08/09 06:52:44;;;;;;;4.65;1.88;;;25.30;44.20;;;;;;5050298;28;20033;-38
2022/08/09 06:55:14;;;;;;;10.85;2.55;;;25.40;43.60;;;;;;5057536;28;20032;-40
2022/08/09 06:57:40;;;;;;;6.53;2.50;;;25.40;43.50;;;;;;5062190;28;20036;-40
2022/08/09 07:00:07;;;;;;;6.22;1.95;;;25.40;43.50;;;;;;5052198;28;20351;-43
2022/08/09 07:02:32;;;;;;;6.35;2.17;;;25.40;43.60;;;;;;5049706;28;20493;-40
2022/08/09 07:04:59;;;;;;;6.78;2.30;;;25.40;43.50;;;;;;5054459;28;20025;-40
2022/08/09 07:07:25;;;;;;;3.20;1.92;;;25.40;43.60;;;;;;5048912;28;20387;-38
2022/08/09 07:09:51;;;;;;;6.07;1.88;;;25.40;43.60;;;;;;5054178;28;20036;-38
2022/08/09 07:12:16;;;;;;;5.28;1.90;;;25.50;43.70;;;;;;5037349;28;20052;-38
2022/08/09 07:14:42;;;;;;;4.55;2.58;;;25.50;44.00;;;;;;5031542;28;20375;-38
2022/08/09 07:17:07;;;;;;;3.78;2.17;;;25.50;43.80;;;;;;5035058;28;20069;-38
2022/08/09 07:19:33;;;;;;;4.95;2.17;;;25.50;44.00;;;;;;5025484;28;20087;-44
2022/08/09 07:21:59;;;;;;;4.50;2.28;;;25.50;44.10;;;;;;5030867;28;20140;-38
2022/08/09 07:24:31;;;;;;;2.88;1.60;;;25.50;44.20;;;;;;5032040;28;20040;-38
2022/08/09 07:26:58;;;;;;;5.55;1.95;;;25.50;44.30;;;;;;5037065;28;20045;-38
2022/08/09 07:29:24;;;;;;;5.70;2.30;;;25.50;44.30;;;;;;5031900;28;20030;-38
2022/08/09 07:31:50;;;;;;;4.47;1.80;;;25.50;44.70;;;;;;5029105;28;20112;-39
2022/08/09 07:34:15;;;;;;;5.80;1.95;;;25.50;44.60;;;;;;5031923;28;20108;-38
2022/08/09 07:36:41;;;;;;;5.18;1.60;;;25.60;44.60;;;;;;5029996;28;20036;-38
2022/08/09 07:39:07;;;;;;;4.35;2.05;;;25.60;44.60;;;;;;5038518;28;20029;-39
2022/08/09 07:41:32;;;;;;;5.30;2.20;;;25.60;44.60;;;;;;5034562;28;20033;-41
2022/08/09 07:43:58;;;;;;;3.58;2.10;;;25.60;44.90;;;;;;5031759;28;20432;-39
2022/08/09 07:46:24;;;;;;;3.60;1.92;;;25.60;44.80;;;;;;5034335;28;20037;-39
2022/08/09 07:48:50;;;;;;;5.28;2.17;;;25.60;44.60;;;;;;5033550;28;20025;-39
2022/08/09 07:51:16;;;;;;;4.97;1.75;;;25.60;44.30;;;;;;5020941;28;20030;-39
2022/08/09 07:53:42;;;;;;;3.53;1.92;;;25.60;44.20;;;;;;5030126;28;20033;-40
2022/08/09 07:56:07;;;;;;;5.18;2.00;;;25.60;44.60;;;;;;5033564;28;20108;-39
2022/08/09 07:58:34;;;;;;;4.82;2.00;;;25.60;44.60;;;;;;5035292;28;20471;-45
2022/08/09 08:01:00;;;;;;;2.83;1.80;;;25.70;44.60;;;;;;5038164;28;20045;-40
2022/08/09 08:03:25;;;;;;;3.38;1.90;;;25.60;44.60;;;;;;5036218;28;20025;-39
2022/08/09 08:05:51;;;;;;;2.83;1.88;;;25.70;44.60;;;;;;5029912;28;20034;-39
2022/08/09 08:08:17;;;;;;;3.65;1.75;;;25.70;44.60;;;;;;5030680;28;20032;-39
2022/08/09 08:10:43;;;;;;;3.17;2.13;;;25.70;44.60;;;;;;5030826;28;20021;-40
2022/08/09 08:13:08;;;;;;;4.75;2.15;;;25.70;44.70;;;;;;5047408;28;20389;-40
2022/08/09 08:15:34;;;;;;;5.63;2.05;;;25.70;44.60;;;;;;5052639;28;20029;-47
2022/08/09 08:18:00;;;;;;;4.70;2.08;;;25.70;44.70;;;;;;5054640;28;20036;-40
2022/08/09 08:20:28;;;;;;;3.13;2.00;;;25.70;44.70;;;;;;5051833;28;20035;-39
2022/08/09 08:22:53;;;;;;;5.28;1.70;;;25.70;44.70;;;;;;5054270;28;20025;-40
2022/08/09 08:25:19;;;;;;;8.65;2.47;;;25.70;44.80;;;;;;5050782;28;20108;-39
2022/08/09 08:27:44;;;;;;;4.05;2.13;;;25.80;44.80;;;;;;5062416;28;20064;-42
2022/08/09 08:30:12;;;;;;;3.78;2.08;;;25.80;44.90;;;;;;5050968;28;20029;-39
2022/08/09 08:32:39;;;;;;;5.32;2.10;;;25.80;44.90;;;;;;5059751;28;20029;-44
2022/08/09 08:35:05;;;;;;;3.67;2.17;;;25.80;45.00;;;;;;5059329;28;20036;-39
2022/08/09 08:37:33;;;;;;;4.10;2.08;;;25.80;44.90;;;;;;5050621;28;20037;-39
2022/08/09 08:39:59;;;;;;;5.35;2.08;;;25.80;45.00;;;;;;5049432;28;20135;-39
2022/08/09 08:42:24;;;;;;;6.32;2.30;;;25.80;45.00;;;;;;5051045;28;20497;-40
2022/08/09 08:44:56;;;;;;;3.90;2.15;;;25.80;45.10;;;;;;5054651;28;20036;-39
2022/08/09 08:47:22;;;;;;;4.28;2.10;;;25.80;45.00;;;;;;5060312;28;20067;-39
2022/08/09 08:49:49;;;;;;;2.97;1.70;;;25.80;45.20;;;;;;5062644;28;20028;-40
2022/08/09 08:52:20;;;;;;;6.00;1.75;;;25.80;45.10;;;;;;5069470;28;20032;-40
2022/08/09 08:54:46;;;;;;;4.45;1.90;;;25.80;44.80;;;;;;5059086;28;20056;-39
2022/08/09 08:57:11;;;;;;;3.42;1.50;;;25.80;44.70;;;;;;5054893;28;20071;-40
2022/08/09 08:59:37;;;;;;;4.50;1.80;;;25.80;45.00;;;;;;5065020;28;20094;-47
2022/08/09 09:02:03;;;;;;;5.10;1.92;;;25.80;44.80;;;;;;5054282;28;20029;-40
2022/08/09 09:04:31;;;;;;;2.85;1.88;;;25.80;44.80;;;;;;5063702;28;20494;-40
2022/08/09 09:07:00;;;;;;;2.97;1.80;;;25.80;44.80;;;;;;5058464;28;20041;-40
2022/08/09 09:09:28;;;;;;;2.78;1.63;;;25.90;44.50;;;;;;5054163;28;20107;-39
2022/08/09 09:11:54;;;;;;;4.97;1.80;;;25.90;44.70;;;;;;5053749;28;20128;-39
2022/08/09 09:14:23;;;;;;;3.40;1.55;;;25.90;44.30;;;;;;5067533;28;20064;-39
2022/08/09 09:16:49;;;;;;;3.05;1.65;;;25.90;44.30;;;;;;5053746;28;20029;-40
2022/08/09 09:19:15;;;;;;;2.42;1.25;;;25.90;44.50;;;;;;5062171;28;20074;-40
2022/08/09 09:22:06;;;;;;;2.75;1.42;;;25.90;44.80;;;;;;5057270;28;20029;-46
2022/08/09 09:24:35;;;;;;;3.45;1.52;;;25.90;44.80;;;;;;5053323;28;20025;-39
2022/08/09 09:27:02;;;;;;;4.95;1.42;;;25.90;44.80;;;;;;5063666;28;20055;-41
2022/08/09 09:29:39;;;;;;;2.53;1.50;;;25.90;44.70;;;;;;5059399;28;20473;-40
2022/08/09 09:32:04;;;;;;;1.80;1.17;;;25.90;44.50;;;;;;5054349;28;20135;-40
2022/08/09 09:34:30;;;;;;;2.58;1.48;;;25.90;44.50;;;;;;5060575;28;20431;-40
2022/08/09 09:36:57;;;;;;;3.10;1.67;;;25.90;44.60;;;;;;5058694;28;20043;-40
2022/08/09 09:39:25;;;;;;;5.20;1.50;;;25.90;44.50;;;;;;5059215;28;20021;-39
2022/08/09 09:41:50;;;;;;;3.05;1.80;;;25.90;44.60;;;;;;5052820;28;20112;-40
2022/08/09 09:44:29;;;;;;;2.45;1.45;;;25.90;44.70;;;;;;5053506;28;20101;-40
2022/08/09 09:47:03;;;;;;;5.20;1.75;;;25.90;44.60;;;;;;5052213;28;20041;-39
2022/08/09 09:49:29;;;;;;;4.10;1.60;;;25.90;44.90;;;;;;5052951;28;20108;-40
2022/08/09 09:52:07;;;;;;;4.30;1.80;;;25.90;45.20;;;;;;5052331;28;20140;-40
2022/08/09 09:54:47;;;;;;;5.00;2.00;;;25.90;45.30;;;;;;5051773;28;20021;-39
2022/08/09 09:57:23;;;;;;;3.33;1.70;;;25.90;45.90;;;;;;5057414;28;20040;-39
2022/08/09 09:59:53;;;;;;;5.70;2.03;;;25.90;46.30;;;;;;5067300;28;20035;-43
2022/08/09 10:02:20;;;;;;;4.88;1.60;;;25.90;46.40;;;;;;5053071;28;20106;-39
2022/08/09 10:05:06;;;;;;;3.80;1.83;;;25.90;46.70;;;;;;5052436;28;20029;-40
2022/08/09 10:07:31;;;;;;;3.95;2.38;;;26.00;47.30;;;;;;5053492;28;20136;-40
2022/08/09 10:09:58;;;;;;;4.53;1.73;;;26.00;47.20;;;;;;5051602;28;20208;-40
2022/08/09 10:12:26;;;;;;;6.57;2.25;;;26.00;47.10;;;;;;5031516;28;20045;-39
2022/08/09 10:15:06;;;;;;;4.72;1.75;;;26.00;47.10;;;;;;5014805;28;20025;-40
2022/08/09 10:17:34;;;;;;;3.80;2.00;;;26.00;47.00;;;;;;5024998;28;20025;-39
2022/08/09 10:20:20;;;;;;;4.80;2.00;;;26.00;47.00;;;;;;5032899;28;20032;-40
2022/08/09 10:22:48;;;;;;;3.60;1.58;;;26.00;46.90;;;;;;5042233;28;20053;-39
2022/08/09 10:25:14;;;;;;;3.15;1.70;;;26.00;46.80;;;;;;5039601;28;20041;-39
2022/08/09 10:27:45;;;;;;;2.88;1.50;;;25.90;47.00;;;;;;5032210;28;20090;-44
2022/08/09 10:30:12;;;;;;;4.78;1.98;;;26.00;47.10;;;;;;5026939;28;20034;-39
2022/08/09 10:32:39;;;;;;;6.22;1.70;;;26.00;47.10;;;;;;5037147;28;20051;-44
2022/08/09 10:35:07;;;;;;;4.32;1.70;;;26.00;47.10;;;;;;5024917;28;20029;-40
2022/08/09 10:37:32;;;;;;;5.45;1.92;;;26.00;47.40;;;;;;5032829;28;20471;-39
2022/08/09 10:39:59;;;;;;;6.80;2.50;;;26.00;47.60;;;;;;5031281;28;20051;-40
2022/08/09 10:42:25;;;;;;;3.33;1.67;;;26.00;47.60;;;;;;5032992;28;20030;-39
2022/08/09 10:45:05;;;;;;;5.90;1.73;;;26.00;47.50;;;;;;5031951;28;20029;-39
2022/08/09 10:47:48;;;;;;;4.50;1.30;;;26.00;47.40;;;;;;5023043;28;20494;-39
2022/08/09 10:51:05;;;;;;;3.33;1.70;;;26.00;47.60;;;;;;5028394;28;20029;-39
2022/08/09 10:53:27;;;;;;;2.60;1.38;;;26.10;47.60;;;;;;5033490;28;20368;-39
2022/08/09 10:56:13;;;;;;;3.50;1.75;;;26.20;48.00;;;;;;5026754;28;20041;-39
2022/08/09 10:58:39;;;;;;;3.58;1.60;;;26.20;48.00;;;;;;5033772;28;20478;-43
2022/08/09 11:01:30;;;;;;;3.55;1.60;;;26.20;47.90;;;;;;5030884;28;20071;-40
2022/08/09 11:04:26;;;;;;;3.58;1.52;;;26.20;47.80;;;;;;5029069;28;20079;-40
2022/08/09 11:06:57;;;;;;;2.80;1.60;;;26.30;47.50;;;;;;5032230;28;20099;-40
2022/08/09 11:09:43;;;;;;;;;;;26.30;47.30;;;;;;5033379;28;20092;-40
2022/08/09 11:12:28;;;;;;;2.88;1.38;;;26.20;47.60;;;;;;5021923;28;20377;-40
2022/08/09 11:14:56;;;;;;;2.92;1.50;;;26.20;47.80;;;;;;5031439;28;20029;-40
2022/08/09 11:17:21;;;;;;;2.83;1.80;;;26.20;48.20;;;;;;5032697;28;20045;-40
2022/08/09 11:20:11;;;;;;;2.95;1.75;;;26.20;47.80;;;;;;5030283;28;20074;-40
2022/08/09 11:22:43;;;;;;;1.95;1.15;;;26.10;48.10;;;;;;5030036;28;20048;-46
2022/08/09 11:25:11;;;;;;;2.65;1.40;;;26.20;47.40;;;;;;5031505;28;20076;-41
2022/08/09 11:27:40;;;;;;;3.63;1.88;;;26.20;47.30;;;;;;5044071;28;20033;-40
2022/08/09 11:30:07;;;;;;;3.42;1.45;;;26.10;47.10;;;;;;5032723;28;20030;-40
2022/08/09 11:32:38;;;;;;;2.70;1.30;;;26.20;47.20;;;;;;5045239;28;20451;-40
2022/08/09 11:35:11;;;;;;;;;;;26.20;47.50;;;;;;5035061;28;20091;-41
2022/08/09 11:37:39;;;;;;;2.95;1.45;;;26.20;47.50;;;;;;5031650;28;19909;-45
2022/08/09 11:40:07;;;;;;;2.10;1.30;;;26.20;47.70;;;;;;5030781;28;20032;-41
2022/08/09 11:42:37;;;;;;;2.25;1.23;;;26.10;47.90;;;;;;5007192;28;20385;-40
2022/08/09 11:45:04;;;;;;;3.80;1.80;;;26.10;47.20;;;;;;5038766;28;20025;-42
2022/08/09 11:47:47;;;;;;;1.92;1.55;;;26.10;47.80;;;;;;5032434;28;20128;-40
2022/08/09 11:50:13;;;;;;;2.38;1.10;;;26.10;47.50;;;;;;5008724;28;20032;-40
2022/08/09 11:52:58;;;;;;;3.53;1.33;;;26.20;47.10;;;;;;5031162;28;20067;-48
2022/08/09 11:55:37;;;;;;;2.33;1.60;;;26.20;46.70;;;;;;5022233;28;20512;-40
2022/08/09 11:58:12;;;;;;;2.25;1.45;;;26.20;47.60;;;;;;5014469;28;20077;-41
2022/08/09 12:00:49;;;;;;;3.15;1.25;;;26.10;46.70;;;;;;5019395;28;20017;-46
2022/08/09 12:03:19;;;;;;;2.28;1.15;;;26.20;47.30;;;;;;5016731;28;20025;-40
2022/08/09 12:05:46;;;;;;;2.33;1.45;;;26.20;47.00;;;;;;5016695;28;20025;-44
2022/08/09 12:08:13;;;;;;;1.65;1.08;;;26.20;46.90;;;;;;5031004;28;20022;-40
2022/08/09 12:10:45;;;;;;;2.00;1.23;;;26.20;46.60;;;;;;5015379;28;20033;-47
2022/08/09 12:13:11;;;;;;;2.25;1.30;;;26.20;46.50;;;;;;5036036;28;20041;-39
2022/08/09 12:15:37;;;;;;;1.80;1.15;;;26.20;47.10;;;;;;5035556;28;20503;-41
2022/08/09 12:18:03;;;;;;;1.70;1.25;;;26.20;46.70;;;;;;5058559;28;20037;-40
2022/08/09 12:20:33;;;;;;;1.38;1.10;;;26.20;46.60;;;;;;5050402;28;20032;-40
2022/08/09 12:23:01;;;;;;;2.55;1.00;;;26.20;46.20;;;;;;5050450;28;20074;-40
2022/08/09 12:25:32;;;;;;;2.08;1.58;;;26.20;46.60;;;;;;5050407;28;20387;-41
2022/08/09 12:28:17;;;;;;;3.58;1.38;;;26.20;46.20;;;;;;5033119;28;20052;-40
2022/08/09 12:30:43;;;;;;;2.88;1.30;;;26.20;46.00;;;;;;5051105;28;20021;-42
2022/08/09 12:33:09;;;;;;;2.90;1.60;;;26.20;47.50;;;;;;5049956;28;20079;-39
2022/08/09 12:35:36;;;;;;;2.10;1.05;;;26.20;46.30;;;;;;5050281;28;20107;-40
2022/08/09 12:38:19;;;;;;;2.33;1.27;;;26.20;46.30;;;;;;5018961;28;20033;-40
2022/08/09 12:40:46;;;;;;;1.92;0.93;;;26.20;46.00;;;;;;5048821;28;20029;-40
2022/08/09 12:43:15;;;;;;;3.33;1.40;;;26.20;46.30;;;;;;5052044;28;20377;-42
2022/08/09 12:45:44;;;;;;;1.75;1.13;;;26.20;46.40;;;;;;5042878;28;20107;-45
2022/08/09 12:48:11;;;;;;;2.17;1.30;;;26.20;46.40;;;;;;5044797;28;20021;-40
2022/08/09 12:50:38;;;;;;;2.58;1.58;;;26.20;46.20;;;;;;5033261;28;20024;-40
2022/08/09 12:53:03;;;;;;;2.55;1.77;;;26.20;46.20;;;;;;5051297;28;20029;-41
2022/08/09 12:55:31;;;;;;;1.70;1.00;;;26.20;46.50;;;;;;5050638;28;20029;-38